Time;durP1;ratioP1;P1;durP2;ratioP2;P2;SDS_P1;SDS_P2;PMS_P1;PMS_P2;Temp;Humidity;BMP_temperature;BMP_pressure;BME280_temperature;BME280_humidity;BME280_pressure;Samples;Min_cycle;Max_cycle;Signal;HPM_P1;HPM_P2
2020/12/03 00:02:24;;;;;;;45.43;24.10;;;7.00;99.90;;;4.96;100.00;100744.47;5067203;28;20249;-78
2020/12/03 00:05:10;;;;;;;63.73;30.20;;;7.00;99.90;;;4.96;100.00;100743.59;5063297;28;20238;-78
2020/12/03 00:07:57;;;;;;;66.47;30.33;;;7.00;99.90;;;4.97;100.00;100735.06;5061112;28;20222;-79
2020/12/03 00:10:42;;;;;;;60.80;31.33;;;7.10;99.90;;;4.98;100.00;100736.78;5081327;28;20264;-78
2020/12/03 00:13:31;;;;;;;59.50;28.40;;;7.10;99.90;;;4.98;100.00;100731.66;5082962;28;20195;-77
2020/12/03 00:16:17;;;;;;;59.27;31.20;;;7.10;99.90;;;4.98;100.00;100717.13;5092797;28;20214;-77
2020/12/03 00:19:04;;;;;;;63.00;33.33;;;7.10;99.90;;;4.99;100.00;100711.16;5082931;28;20229;-79
2020/12/03 00:21:53;;;;;;;54.30;25.63;;;7.10;99.90;;;5.01;100.00;100714.53;5069323;28;20213;-78
2020/12/03 00:24:39;;;;;;;62.93;30.33;;;7.10;99.90;;;5.01;100.00;100709.41;5072374;28;20594;-77
2020/12/03 00:27:24;;;;;;;57.20;29.47;;;7.10;99.90;;;5.01;100.00;100703.44;5067462;28;20664;-79
2020/12/03 00:30:10;;;;;;;60.30;30.50;;;7.10;99.90;;;5.02;100.00;100700.88;5076051;28;20229;-78
2020/12/03 00:32:56;;;;;;;60.80;31.17;;;7.10;99.90;;;5.01;100.00;100685.50;5076500;28;20259;-78
2020/12/03 00:35:41;;;;;;;60.20;31.93;;;7.10;99.90;;;5.00;100.00;100676.94;5074695;28;20244;-78
2020/12/03 00:38:27;;;;;;;55.23;29.10;;;7.10;99.90;;;5.02;100.00;100671.81;5072847;28;20790;-79
2020/12/03 00:41:14;;;;;;;67.43;32.17;;;7.10;99.90;;;5.02;100.00;100669.25;5069921;28;20210;-78
2020/12/03 00:44:00;;;;;;;68.60;31.97;;;7.10;99.90;;;5.02;100.00;100664.97;5070120;28;20269;-78
2020/12/03 00:46:46;;;;;;;67.10;32.10;;;7.10;99.90;;;5.02;100.00;100659.84;5065791;28;20202;-79
2020/12/03 00:49:31;;;;;;;59.53;29.70;;;7.10;99.90;;;5.02;100.00;100648.72;5067451;28;20223;-80
2020/12/03 00:52:16;;;;;;;59.23;32.50;;;7.10;99.90;;;5.02;100.00;100648.72;5078979;28;20206;-77
2020/12/03 00:55:02;;;;;;;69.87;33.63;;;7.10;99.90;;;5.01;100.00;100639.34;5073784;28;20209;-79
2020/12/03 00:57:48;;;;;;;53.27;27.00;;;7.10;99.90;;;4.98;100.00;100629.13;5067930;28;20310;-79
2020/12/03 01:00:34;;;;;;;64.57;33.13;;;7.20;99.90;;;4.98;100.00;100618.88;5061511;28;20227;-77
2020/12/03 01:03:18;;;;;;;51.23;27.17;;;7.10;99.90;;;4.98;100.00;100622.28;5070100;28;20210;-78
2020/12/03 01:06:04;;;;;;;66.63;32.03;;;7.20;99.90;;;4.97;100.00;100619.72;5060742;28;20679;-78
2020/12/03 01:08:49;;;;;;;62.73;31.20;;;7.20;99.90;;;4.96;100.00;100613.75;5059015;28;20723;-77
2020/12/03 01:11:34;;;;;;;62.93;31.37;;;7.20;99.90;;;5.01;100.00;100613.72;5079494;28;20256;-79
2020/12/03 01:14:21;;;;;;;59.00;30.50;;;7.20;99.90;;;5.01;100.00;100608.59;5062052;28;20274;-79
2020/12/03 01:17:10;;;;;;;66.50;32.13;;;7.20;99.90;;;5.01;100.00;100606.03;5067191;28;20210;-78
2020/12/03 01:19:55;;;;;;;56.83;31.67;;;7.20;99.90;;;5.01;100.00;100600.91;5063113;28;20298;-78
2020/12/03 01:22:40;;;;;;;56.90;32.67;;;7.20;99.90;;;5.01;100.00;100611.16;5059324;28;20690;-78
2020/12/03 01:25:26;;;;;;;60.30;30.93;;;7.20;99.90;;;4.99;100.00;100593.22;5064240;28;20218;-77
2020/12/03 01:28:11;;;;;;;55.87;29.03;;;7.20;99.90;;;4.97;100.00;100587.25;5067529;28;20203;-76
2020/12/03 02:04:14;;;;;;;47.90;25.60;;;6.90;99.90;;;4.65;100.00;100559.22;4865090;29;20664;-79
2020/12/03 02:12:11;;;;;;;52.67;27.77;;;6.70;99.90;;;4.45;100.00;100547.38;4836767;29;20718;-78
2020/12/03 02:31:14;;;;;;;55.00;27.03;;;6.60;99.90;;;4.57;100.00;100501.22;5040897;28;20227;-80
2020/12/03 02:34:00;;;;;;;41.27;20.93;;;6.60;99.90;;;4.64;100.00;100503.75;5082047;22;20241;-78
2020/12/03 02:36:50;;;;;;;57.57;30.37;;;6.50;99.90;;;4.61;100.00;100498.66;5023258;28;20327;-77
2020/12/03 02:39:38;;;;;;;55.00;28.43;;;6.50;99.90;;;4.62;100.00;100484.97;5037448;28;20199;-77
2020/12/03 02:42:23;;;;;;;50.97;26.27;;;6.60;99.90;;;4.55;100.00;100485.00;5035932;28;20278;-78
2020/12/03 02:45:08;;;;;;;58.50;27.60;;;6.50;99.90;;;4.57;100.00;100478.16;5003091;28;20219;-77
2020/12/03 02:47:54;;;;;;;53.50;28.83;;;6.60;99.90;;;4.60;100.00;100466.19;5013862;28;20675;-78
2020/12/03 02:50:39;;;;;;;44.07;22.47;;;6.50;99.90;;;4.57;100.00;100467.06;5015591;28;20699;-78
2020/12/03 02:53:24;;;;;;;59.97;28.80;;;6.60;99.90;;;4.52;100.00;100454.28;5018044;28;20235;-78
2020/12/03 02:56:11;;;;;;;53.07;28.30;;;6.60;99.90;;;4.54;100.00;100450.00;5016661;28;20253;-79
2020/12/03 02:58:56;;;;;;;54.13;31.37;;;6.60;99.90;;;4.51;100.00;100454.31;5020293;28;20212;-78
2020/12/03 03:01:41;;;;;;;50.70;27.70;;;6.60;99.90;;;4.48;100.00;100457.72;5018524;28;20212;-80
2020/12/03 03:04:27;;;;;;;47.60;25.20;;;6.60;99.90;;;4.47;100.00;100456.00;5018371;28;20232;-79
2020/12/03 03:07:13;;;;;;;51.73;27.30;;;6.60;99.90;;;4.43;100.00;100448.38;5018950;28;20271;-77
2020/12/03 03:09:59;;;;;;;49.00;25.93;;;6.60;99.90;;;4.34;100.00;100454.38;5015343;28;20251;-78
2020/12/03 03:12:44;;;;;;;46.97;22.10;;;6.60;99.90;;;4.36;100.00;100447.56;5012261;28;20763;-80
2020/12/03 03:15:29;;;;;;;39.00;19.13;;;6.60;99.90;;;4.32;100.00;100448.44;5020352;28;20768;-78
2020/12/03 03:18:14;;;;;;;49.90;24.67;;;6.50;99.90;;;4.26;100.00;100440.81;5039588;28;20207;-78
2020/12/03 03:21:00;;;;;;;48.30;25.23;;;6.50;99.90;;;4.27;100.00;100437.41;5024625;28;20563;-77
2020/12/03 03:23:45;;;;;;;44.07;24.20;;;6.50;99.90;;;4.29;100.00;100433.09;5005975;28;20239;-79
2020/12/03 03:26:30;;;;;;;49.77;21.87;;;6.50;99.90;;;4.27;100.00;100424.59;5026583;28;20228;-79
2020/12/03 03:29:17;;;;;;;46.13;23.37;;;6.50;99.90;;;4.37;100.00;100413.41;5036509;28;20571;-78
2020/12/03 03:32:02;;;;;;;44.07;23.93;;;6.50;99.90;;;4.44;100.00;100419.34;5016390;28;20215;-78
2020/12/03 03:34:47;;;;;;;49.63;22.97;;;6.50;99.90;;;4.40;100.00;100413.41;5022287;28;20208;-78
2020/12/03 03:37:34;;;;;;;49.10;25.00;;;6.50;99.90;;;4.43;100.00;100408.25;5022848;28;20251;-79
2020/12/03 03:40:19;;;;;;;50.70;24.90;;;6.50;99.90;;;4.44;100.00;100412.50;5021759;28;20623;-78
2020/12/03 03:43:04;;;;;;;45.57;24.20;;;6.40;99.90;;;4.44;100.00;100403.97;5021509;28;20263;-79
2020/12/03 03:45:50;;;;;;;47.07;24.00;;;6.50;99.90;;;4.46;100.00;100398.00;5008064;28;20219;-78
2020/12/03 03:48:35;;;;;;;48.90;24.73;;;6.50;99.90;;;4.60;100.00;100400.44;5021063;28;20216;-79
2020/12/03 03:51:20;;;;;;;49.50;25.67;;;6.50;99.90;;;4.62;100.00;100392.75;5020496;28;20212;-78
2020/12/03 03:54:06;;;;;;;44.80;23.67;;;6.50;99.90;;;4.70;100.00;100390.97;5020506;28;20739;-77
2020/12/03 03:56:51;;;;;;;45.23;24.97;;;6.50;99.90;;;4.71;100.00;100375.59;5019354;28;20216;-79
2020/12/03 03:59:37;;;;;;;49.10;24.07;;;6.50;99.90;;;4.74;100.00;100367.03;5006517;28;20220;-77
2020/12/03 04:02:23;;;;;;;43.50;23.10;;;6.50;99.90;;;4.77;100.00;100361.88;5018304;28;20235;-78
2020/12/03 04:05:09;;;;;;;47.83;22.13;;;6.50;99.90;;;4.79;100.00;100361.88;5021090;28;20715;-78
2020/12/03 04:07:54;;;;;;;44.97;22.53;;;6.50;99.90;;;4.78;100.00;100361.00;5007857;28;20211;-78
2020/12/03 04:10:40;;;;;;;42.63;24.73;;;6.60;99.90;;;4.82;100.00;100354.97;5021126;28;20216;-79
2020/12/03 04:13:26;;;;;;;40.10;21.23;;;6.60;99.90;;;4.84;100.00;100357.53;5021220;28;20251;-80
2020/12/03 04:16:12;;;;;;;40.93;21.60;;;6.60;99.90;;;4.85;100.00;100352.38;5021198;28;20276;-79
2020/12/03 04:18:57;;;;;;;44.70;24.80;;;6.60;99.90;;;4.86;100.00;100348.13;5018133;28;20312;-78
2020/12/03 04:21:43;;;;;;;42.13;24.10;;;6.70;99.90;;;4.84;100.00;100345.59;5023482;28;20208;-79
2020/12/03 04:24:28;;;;;;;39.00;22.20;;;6.70;99.90;;;4.86;100.00;100348.97;5017737;28;20235;-78
2020/12/03 04:27:15;;;;;;;39.17;21.57;;;6.70;99.90;;;4.87;100.00;100342.13;5017560;28;20208;-79
2020/12/03 04:30:00;;;;;;;43.13;23.20;;;6.70;99.90;;;4.85;100.00;100337.00;5018183;28;20590;-78
2020/12/03 04:32:46;;;;;;;46.37;24.77;;;6.70;99.90;;;4.87;100.00;100343.00;5017957;28;20304;-78
2020/12/03 04:35:31;;;;;;;38.97;20.93;;;6.80;99.90;;;4.87;100.00;100335.31;5018481;28;20569;-76
2020/12/03 04:38:16;;;;;;;43.13;22.70;;;6.80;99.90;;;4.89;100.00;100331.00;5026384;28;20263;-78
2020/12/03 04:41:02;;;;;;;44.63;22.50;;;6.80;99.90;;;4.91;100.00;100325.84;5018053;28;20443;-78
2020/12/03 04:43:57;;;;;;;42.57;21.53;;;6.80;99.90;;;4.90;100.00;100314.78;5004712;28;20314;-77
2020/12/03 04:46:50;;;;;;;39.33;23.33;;;6.80;99.90;;;4.91;100.00;100306.19;5015035;28;20220;-77
2020/12/03 04:49:47;;;;;;;40.47;25.50;;;6.90;99.90;;;4.88;100.00;100300.25;5018423;28;20208;-77
2020/12/03 04:53:19;;;;;;;44.17;24.73;;;6.90;99.90;;;4.89;100.00;100284.88;5019236;28;20231;-78
2020/12/03 04:56:09;;;;;;;46.63;22.57;;;6.90;99.90;;;4.87;100.00;100278.94;5026438;28;20312;-78
2020/12/03 04:59:14;;;;;;;40.30;21.83;;;6.90;99.90;;;4.87;100.00;100272.94;5005870;28;20204;-78
2020/12/03 05:02:30;;;;;;;37.10;24.07;;;6.90;99.90;;;4.87;100.00;100263.56;5011957;28;20284;-78
2020/12/03 05:05:26;;;;;;;43.73;23.43;;;6.90;99.90;;;4.88;100.00;100272.91;5011522;28;20209;-78
2020/12/03 05:08:27;;;;;;;42.63;21.83;;;6.90;99.90;;;4.88;100.00;100262.66;5017448;28;20203;-78
2020/12/03 05:11:22;;;;;;;34.57;18.70;;;6.90;99.90;;;4.90;100.00;100260.06;5019503;28;20200;-78
2020/12/03 05:14:28;;;;;;;42.60;21.13;;;6.90;99.90;;;4.89;100.00;100246.44;5020956;28;20290;-77
2020/12/03 05:17:52;;;;;;;41.60;23.50;;;6.90;99.90;;;4.87;100.00;100234.50;5020427;28;20277;-78
2020/12/03 05:20:45;;;;;;;43.77;22.70;;;6.90;99.90;;;4.83;100.00;100223.44;5010378;28;20209;-78
2020/12/03 05:23:33;;;;;;;39.47;21.20;;;6.90;99.90;;;4.74;100.00;100221.00;5008150;28;20228;-78
2020/12/03 05:26:24;;;;;;;42.07;22.23;;;6.90;99.90;;;4.64;100.00;100219.41;5016988;28;20224;-78
2020/12/03 05:29:11;;;;;;;42.67;23.50;;;6.90;99.90;;;4.60;100.00;100218.56;5018413;28;20204;-78
2020/12/03 05:31:56;;;;;;;40.40;23.23;;;6.90;99.90;;;4.57;100.00;100206.63;5003698;28;20579;-78
2020/12/03 05:34:41;;;;;;;42.83;22.43;;;6.90;99.90;;;4.57;100.00;100209.19;5013631;28;20200;-78
2020/12/03 05:37:28;;;;;;;39.37;22.77;;;6.90;99.90;;;4.56;100.00;100193.84;5016237;28;20707;-77
2020/12/03 05:40:25;;;;;;;46.97;23.00;;;6.90;99.90;;;4.57;100.00;100204.06;5016134;28;20312;-77
2020/12/03 05:43:10;;;;;;;35.57;20.63;;;6.90;99.90;;;4.55;100.00;100198.13;5018974;28;20248;-79
2020/12/03 05:45:58;;;;;;;38.10;21.03;;;6.90;99.90;;;4.55;100.00;100193.00;5009083;28;20302;-77
2020/12/03 05:49:00;;;;;;;35.07;20.37;;;6.90;99.90;;;4.55;100.00;100184.47;5030157;28;20204;-82
2020/12/03 05:51:45;;;;;;;34.63;21.30;;;6.90;99.90;;;4.56;100.00;100194.72;5023047;28;20231;-80
2020/12/03 05:54:30;;;;;;;35.47;22.53;;;6.90;99.90;;;4.56;100.00;100189.59;5018984;28;20207;-79
2020/12/03 05:57:25;;;;;;;37.80;21.07;;;6.90;99.90;;;4.56;100.00;100183.59;5019114;28;20557;-84
2020/12/03 06:00:22;;;;;;;35.93;24.27;;;6.90;99.90;;;4.57;100.00;100175.88;5014032;28;20216;-78
2020/12/03 06:03:30;;;;;;;36.20;21.10;;;6.90;99.90;;;4.58;100.00;100176.75;5019082;28;20352;-80
2020/12/03 06:07:17;;;;;;;41.67;22.63;;;6.90;99.90;;;4.57;100.00;100172.50;5015849;28;20267;-80
2020/12/03 06:10:17;;;;;;;33.40;19.77;;;6.80;99.90;;;4.59;100.00;100157.09;5017346;28;20295;-79
2020/12/03 06:13:34;;;;;;;34.83;23.00;;;6.80;99.90;;;4.57;100.00;100160.53;5010104;28;20228;-78
2020/12/03 06:16:38;;;;;;;36.23;21.17;;;6.80;99.90;;;4.56;100.00;100156.28;5016132;28;20244;-79
2020/12/03 06:19:41;;;;;;;30.67;16.47;;;6.80;99.90;;;4.57;100.00;100150.28;5014596;28;20231;-77
2020/12/03 06:22:49;;;;;;;37.13;22.10;;;6.80;99.90;;;4.56;100.00;100143.47;5012294;28;20227;-81
2020/12/03 06:25:47;;;;;;;33.10;19.63;;;6.80;99.90;;;4.56;100.00;100133.25;5011674;28;20299;-79
2020/12/03 06:29:05;;;;;;;34.70;19.47;;;6.80;99.90;;;4.56;100.00;100133.25;5012672;28;20680;-79
2020/12/03 06:32:26;;;;;;;30.43;20.03;;;6.80;99.90;;;4.55;100.00;100131.53;5014530;28;20567;-78
2020/12/03 06:35:29;;;;;;;31.27;18.20;;;6.80;99.90;;;4.55;100.00;100126.41;5012952;28;20204;-77
2020/12/03 06:38:29;;;;;;;27.67;15.93;;;6.80;99.90;;;4.54;100.00;100119.59;5019215;28;20550;-80
2020/12/03 06:41:35;;;;;;;32.17;18.73;;;6.70;99.90;;;4.55;100.00;100116.16;5018891;28;20657;-79
2020/12/03 06:44:26;;;;;;;32.67;17.73;;;6.80;99.90;;;4.55;100.00;100111.03;5015853;28;20268;-78
2020/12/03 06:48:17;;;;;;;34.07;17.57;;;6.80;99.90;;;4.55;100.00;100105.91;5012921;28;20200;-78
2020/12/03 06:51:33;;;;;;;29.50;17.57;;;6.70;99.90;;;4.55;100.00;100105.91;4959958;28;20246;-79
2020/12/03 06:54:53;;;;;;;34.23;18.90;;;6.70;99.90;;;4.55;100.00;100098.22;5020722;28;20723;-79
2020/12/03 06:58:30;;;;;;;38.10;20.77;;;6.70;99.90;;;4.52;100.00;100093.16;5021191;28;20269;-78
2020/12/03 07:01:53;;;;;;;34.57;22.10;;;6.70;99.90;;;4.50;100.00;100079.53;5021610;28;20538;-79
2020/12/03 07:05:28;;;;;;;36.13;20.90;;;6.70;99.90;;;4.50;100.00;100083.78;5003612;28;20212;-79
2020/12/03 07:08:52;;;;;;;40.00;21.60;;;6.70;99.90;;;4.48;100.00;100088.09;4992298;28;20212;-78
2020/12/03 07:12:07;;;;;;;44.47;23.07;;;6.70;99.90;;;4.49;100.00;100079.56;5016714;28;20274;-77
2020/12/03 07:15:35;;;;;;;44.70;25.87;;;6.70;99.90;;;4.48;100.00;100090.66;5016744;28;20219;-78
2020/12/03 07:19:01;;;;;;;48.07;21.87;;;6.70;99.90;;;4.47;100.00;100078.72;5017416;28;20199;-79
2020/12/03 07:22:09;;;;;;;46.37;25.17;;;6.60;99.90;;;4.46;100.00;100072.75;5013333;28;20200;-79
2020/12/03 07:24:57;;;;;;;42.67;21.80;;;6.60;99.90;;;4.48;100.00;100070.16;5016134;28;20212;-79
2020/12/03 07:28:04;;;;;;;42.93;21.53;;;6.60;99.90;;;4.47;100.00;100061.63;5015735;28;20208;-79
2020/12/03 07:30:53;;;;;;;38.67;20.60;;;6.60;99.90;;;4.46;100.00;100064.19;5014926;28;20211;-79
2020/12/03 07:34:02;;;;;;;46.50;24.93;;;6.60;99.90;;;4.47;100.00;100060.78;5015979;28;20598;-79
2020/12/03 07:36:58;;;;;;;45.00;21.60;;;6.60;99.90;;;4.47;100.00;100064.19;5017304;28;20223;-79
2020/12/03 07:39:50;;;;;;;42.57;21.53;;;6.60;99.90;;;4.48;100.00;100065.88;5018973;28;20208;-79
2020/12/03 07:42:37;;;;;;;45.27;22.03;;;6.60;99.90;;;4.52;100.00;100059.84;5017969;28;20236;-79
2020/12/03 07:45:43;;;;;;;41.47;22.47;;;6.60;99.90;;;4.55;100.00;100062.38;5009507;28;20733;-79
2020/12/03 07:48:44;;;;;;;46.97;25.17;;;6.60;99.90;;;4.62;100.00;100052.91;5016383;28;20224;-78
2020/12/03 07:51:34;;;;;;;49.07;23.33;;;6.60;99.90;;;4.62;100.00;100049.47;5017983;28;20199;-79
2020/12/03 07:54:24;;;;;;;41.10;21.20;;;6.60;99.90;;;4.62;100.00;100032.41;5026934;28;20208;-78
2020/12/03 07:57:50;;;;;;;38.87;22.43;;;6.60;99.90;;;4.65;100.00;100039.19;5026448;28;20204;-79
2020/12/03 08:00:52;;;;;;;39.47;20.80;;;6.60;99.90;;;4.63;100.00;100030.69;5026852;28;20224;-79
2020/12/03 08:03:56;;;;;;;41.63;23.80;;;6.60;99.90;;;4.56;100.00;100029.91;5025363;28;20235;-79
2020/12/03 08:07:09;;;;;;;42.43;21.50;;;6.60;99.90;;;4.52;100.00;100024.00;5014851;28;20259;-80
2020/12/03 08:09:54;;;;;;;40.43;22.97;;;6.60;99.90;;;4.50;100.00;100019.75;5007814;28;20267;-79
2020/12/03 08:13:15;;;;;;;41.43;20.67;;;6.60;99.90;;;4.47;100.00;100014.69;5019859;28;20734;-78
2020/12/03 08:16:03;;;;;;;41.87;20.53;;;6.60;99.90;;;4.45;100.00;100019.00;5038195;28;20275;-78
2020/12/03 08:19:01;;;;;;;39.77;22.03;;;6.60;99.90;;;4.43;100.00;100008.78;5032150;28;20228;-79
2020/12/03 08:21:47;;;;;;;40.27;21.67;;;6.60;99.90;;;4.44;100.00;100004.50;5005410;28;20278;-79
2020/12/03 08:24:34;;;;;;;33.37;19.17;;;6.60;99.90;;;4.42;100.00;99996.81;5019103;28;20199;-78
2020/12/03 08:27:20;;;;;;;41.47;21.10;;;6.60;99.90;;;4.45;100.00;99996.78;5017800;28;20220;-78
2020/12/03 08:30:39;;;;;;;34.90;17.70;;;6.60;99.90;;;4.47;100.00;99991.63;5014043;28;20215;-78
2020/12/03 08:33:28;;;;;;;36.90;21.47;;;6.60;99.90;;;4.49;100.00;99988.19;5006067;28;20356;-78
2020/12/03 08:36:14;;;;;;;35.53;22.33;;;6.60;99.90;;;4.52;100.00;99987.31;5014892;28;20204;-78
2020/12/03 08:38:59;;;;;;;30.87;14.97;;;6.60;99.90;;;4.53;100.00;99984.72;5020373;28;20215;-80
2020/12/03 08:41:49;;;;;;;38.07;18.70;;;6.60;99.90;;;4.59;100.00;99985.50;5022410;28;20227;-78
2020/12/03 08:44:36;;;;;;;37.13;19.53;;;6.60;99.90;;;4.62;100.00;99983.75;5022622;28;20251;-80
2020/12/03 08:47:35;;;;;;;34.57;19.03;;;6.70;99.90;;;4.66;100.00;99966.59;5022535;28;20564;-79
2020/12/03 08:50:21;;;;;;;33.97;18.20;;;6.70;99.90;;;4.67;100.00;99968.31;5020354;28;20265;-78
2020/12/03 08:53:11;;;;;;;31.47;16.20;;;6.70;99.90;;;4.66;100.00;99958.91;5021580;28;20734;-81
2020/12/03 08:56:21;;;;;;;30.37;16.67;;;6.70;99.90;;;4.67;100.00;99952.94;5011443;28;20204;-79
2020/12/03 08:59:09;;;;;;;32.57;18.80;;;6.70;99.90;;;4.68;100.00;99959.72;5009462;28;20235;-81
2020/12/03 09:02:09;;;;;;;32.57;16.87;;;6.70;99.90;;;4.67;100.00;99960.63;5022433;28;20212;-80
2020/12/03 09:04:57;;;;;;;32.53;18.83;;;6.70;99.90;;;4.69;100.00;99964.84;5015135;28;20220;-79
2020/12/03 09:07:52;;;;;;;35.63;17.67;;;6.70;99.90;;;4.68;100.00;99962.28;5011778;28;20292;-80
2020/12/03 09:10:38;;;;;;;38.70;20.23;;;6.80;99.90;;;4.63;100.00;99964.94;5022346;28;20289;-80
2020/12/03 09:13:24;;;;;;;33.87;19.03;;;6.80;99.90;;;4.60;100.00;99961.59;5022800;28;20710;-78
2020/12/03 09:16:15;;;;;;;32.77;18.63;;;6.80;99.90;;;4.54;100.00;99955.66;5021828;28;20251;-79
2020/12/03 09:19:01;;;;;;;29.33;16.50;;;6.80;99.90;;;4.45;100.00;99953.25;5020916;28;20238;-79
2020/12/03 09:21:50;;;;;;;31.90;17.53;;;6.80;99.90;;;4.43;100.00;99938.78;5015755;28;20202;-78
2020/12/03 09:24:38;;;;;;;34.87;18.90;;;6.80;99.90;;;4.39;100.00;99936.25;5007238;28;20700;-78
2020/12/03 09:27:24;;;;;;;34.13;16.77;;;6.80;99.90;;;4.41;100.00;99923.44;5021190;28;20211;-79
2020/12/03 09:30:19;;;;;;;39.93;22.17;;;6.70;99.90;;;4.42;100.00;99925.13;5020774;28;20367;-80
2020/12/03 09:33:09;;;;;;;41.00;23.10;;;6.70;99.90;;;4.41;100.00;99923.44;5008701;28;20236;-80
2020/12/03 09:35:55;;;;;;;36.47;20.13;;;6.70;99.90;;;4.39;100.00;99920.88;5021788;28;20310;-79
2020/12/03 09:38:47;;;;;;;39.67;25.10;;;6.70;99.90;;;4.40;100.00;99908.94;5022434;28;20219;-80
2020/12/03 09:41:34;;;;;;;37.57;21.10;;;6.70;99.90;;;4.41;100.00;99908.06;5010661;28;20204;-78
2020/12/03 09:44:21;;;;;;;40.73;23.67;;;6.70;99.90;;;4.38;100.00;99908.97;5023792;28;20258;-80
2020/12/03 09:47:14;;;;;;;37.47;21.37;;;6.70;99.90;;;4.38;100.00;99887.63;5014158;28;20375;-80
2020/12/03 09:49:59;;;;;;;35.83;18.43;;;6.70;99.90;;;4.38;100.00;99892.75;5025057;28;20293;-78
2020/12/03 09:52:47;;;;;;;33.17;18.43;;;6.70;99.90;;;4.39;100.00;99873.97;5022892;28;20231;-79
2020/12/03 09:55:32;;;;;;;40.30;22.27;;;6.70;99.90;;;4.38;100.00;99860.34;5021824;28;20692;-79
2020/12/03 09:58:21;;;;;;;34.47;21.03;;;6.70;99.90;;;4.33;100.00;99859.53;5021434;28;20228;-78
2020/12/03 10:01:09;;;;;;;36.23;21.00;;;6.70;99.90;;;4.35;100.00;99849.28;5020897;28;20275;-78
2020/12/03 10:04:48;;;;;;;40.97;22.00;;;6.70;99.90;;;4.35;100.00;99821.94;5018954;28;20227;-79
2020/12/03 10:08:08;;;;;;;42.17;21.47;;;6.70;99.90;;;4.33;100.00;99816.00;5020494;28;20276;-78
2020/12/03 10:11:14;;;;;;;40.10;20.70;;;6.60;99.90;;;4.31;100.00;99814.34;5025099;28;20212;-78
2020/12/03 10:14:40;;;;;;;34.57;21.43;;;6.70;99.90;;;4.35;100.00;99800.63;5019529;28;20224;-80
2020/12/03 10:17:34;;;;;;;32.60;18.83;;;6.60;99.90;;;4.34;100.00;99806.59;5015174;28;20201;-80
2020/12/03 10:20:20;;;;;;;39.77;22.47;;;6.60;99.90;;;4.39;100.00;99798.00;5014078;28;20207;-79
2020/12/03 10:23:38;;;;;;;35.60;19.37;;;6.60;99.90;;;4.44;100.00;99794.50;5020158;28;20220;-79
2020/12/03 10:26:37;;;;;;;41.03;21.83;;;6.60;99.90;;;4.42;100.00;99796.25;5019690;28;20220;-79
2020/12/03 10:29:45;;;;;;;37.57;19.97;;;6.60;99.90;;;4.52;100.00;99778.16;5020362;28;20200;-80
2020/12/03 10:32:33;;;;;;;33.13;20.30;;;6.60;99.90;;;4.64;100.00;99778.81;5019822;28;20602;-80
2020/12/03 10:35:18;;;;;;;37.47;19.97;;;6.60;99.90;;;4.66;100.00;99770.19;5019098;28;20238;-78
2020/12/03 10:38:10;;;;;;;38.47;21.97;;;6.60;99.90;;;4.68;100.00;99773.59;5013714;28;20264;-80
2020/12/03 10:40:56;;;;;;;32.90;19.33;;;6.60;99.90;;;4.68;100.00;99763.34;5014308;28;20204;-79
2020/12/03 10:43:51;;;;;;;39.03;22.00;;;6.60;99.90;;;4.72;100.00;99759.00;5019254;28;20288;-80
2020/12/03 10:46:46;;;;;;;35.97;22.00;;;6.60;99.90;;;4.73;100.00;99751.28;5006187;28;20215;-81
2020/12/03 10:49:37;;;;;;;35.43;21.80;;;6.60;99.90;;;4.76;100.00;99731.63;5019155;28;20615;-79
2020/12/03 10:52:27;;;;;;;37.00;21.40;;;6.60;99.90;;;4.78;100.00;99728.13;5016666;28;20627;-80
2020/12/03 10:55:18;;;;;;;39.90;22.73;;;6.60;99.90;;;4.80;100.00;99722.97;5023713;28;20205;-78
2020/12/03 10:58:11;;;;;;;37.53;21.07;;;6.60;99.90;;;4.83;100.00;99718.66;5036155;28;20245;-80
2020/12/03 11:01:05;;;;;;;41.90;20.50;;;6.60;99.90;;;4.85;100.00;99705.81;5022762;28;20255;-81
2020/12/03 11:03:53;;;;;;;32.60;20.77;;;6.70;99.90;;;4.86;100.00;99708.34;5008337;28;20283;-80
2020/12/03 11:06:38;;;;;;;39.50;20.33;;;6.70;99.90;;;4.87;100.00;99707.47;5017966;28;20256;-79
2020/12/03 11:09:27;;;;;;;38.40;22.77;;;6.70;99.90;;;4.90;100.00;99701.44;5019241;28;20282;-80
2020/12/03 11:12:12;;;;;;;35.07;19.93;;;6.70;99.90;;;4.92;100.00;99692.84;5017976;28;20244;-80
2020/12/03 11:15:05;;;;;;;38.27;18.93;;;6.70;99.90;;;4.96;100.00;99698.75;5018471;28;20219;-79
2020/12/03 11:18:04;;;;;;;30.80;17.67;;;6.70;99.90;;;4.96;100.00;99685.94;5007344;28;20203;-80
2020/12/03 11:20:59;;;;;;;35.90;21.53;;;6.80;99.90;;;4.99;100.00;99683.31;5017859;28;20208;-79
2020/12/03 11:24:02;;;;;;;33.97;20.00;;;6.80;99.90;;;5.07;100.00;99678.03;5012407;28;20231;-81
2020/12/03 11:26:50;;;;;;;32.63;19.37;;;6.80;99.90;;;5.12;100.00;99673.63;5007181;28;20219;-79
2020/12/03 11:29:36;;;;;;;33.87;19.03;;;6.90;99.90;;;5.18;100.00;99668.38;5019739;28;20208;-79
2020/12/03 11:32:22;;;;;;;31.03;18.43;;;6.90;99.90;;;5.23;100.00;99664.00;5018977;28;20283;-80
2020/12/03 11:35:24;;;;;;;31.40;17.53;;;6.90;99.90;;;5.32;100.00;99657.81;5010432;28;20263;-81
2020/12/03 11:38:14;;;;;;;28.80;17.03;;;6.90;99.90;;;5.42;100.00;99653.31;5021536;28;20222;-78
2020/12/03 11:41:04;;;;;;;32.63;18.73;;;7.00;99.90;;;5.44;100.00;99634.44;5022618;28;20196;-80
2020/12/03 11:47:44;;;;;;;27.43;16.23;;;7.10;99.90;;;5.39;100.00;99632.88;5012146;28;20838;-80
2020/12/03 11:50:36;;;;;;;27.50;15.30;;;7.10;99.90;;;5.32;100.00;99621.91;5012596;28;20224;-81
2020/12/03 11:53:24;;;;;;;25.40;15.17;;;7.20;99.90;;;5.27;100.00;99618.63;5022575;28;20232;-79
2020/12/03 11:56:17;;;;;;;22.00;13.40;;;7.20;99.90;;;5.27;100.00;99605.81;5018823;28;20217;-80
2020/12/03 11:59:17;;;;;;;21.27;12.07;;;7.20;99.90;;;5.30;100.00;99602.31;5023585;28;20212;-80
2020/12/03 12:02:05;;;;;;;21.77;11.43;;;7.20;99.90;;;5.29;100.00;99593.78;5021697;28;20208;-80
2020/12/03 12:04:55;;;;;;;22.50;11.63;;;7.30;99.90;;;5.29;100.00;99587.81;5015184;28;20240;-80
2020/12/03 12:07:46;;;;;;;22.17;13.23;;;7.30;99.90;;;5.27;100.00;99582.72;5022653;28;20551;-80
2020/12/03 12:10:35;;;;;;;23.03;13.57;;;7.30;99.90;;;5.27;100.00;99565.63;5026325;28;20208;-80
2020/12/03 12:13:19;;;;;;;25.53;14.47;;;7.30;99.90;;;5.27;100.00;99568.19;5024822;28;20223;-80
2020/12/03 12:16:09;;;;;;;21.50;12.00;;;7.30;99.90;;;5.26;100.00;99553.66;5023882;28;20204;-80
2020/12/03 12:18:55;;;;;;;24.00;13.83;;;7.40;99.90;;;5.26;100.00;99548.53;5015492;28;20324;-80
2020/12/03 12:21:40;;;;;;;19.83;14.53;;;7.40;99.90;;;5.24;100.00;99545.19;5022458;28;20207;-78
2020/12/03 12:24:26;;;;;;;21.90;14.37;;;7.40;99.90;;;5.22;100.00;99540.97;5022078;28;20208;-81
2020/12/03 12:27:13;;;;;;;20.67;13.37;;;7.40;99.90;;;5.17;100.00;99530.81;5023712;28;20228;-80
2020/12/03 12:29:58;;;;;;;21.60;14.03;;;7.40;99.90;;;5.16;100.00;99523.19;5020310;28;20232;-79
2020/12/03 12:32:43;;;;;;;18.97;11.53;;;7.40;99.90;;;5.13;100.00;99523.25;5029545;28;20263;-80
2020/12/03 12:35:28;;;;;;;19.87;13.13;;;7.30;99.90;;;5.03;100.00;99513.19;5025855;28;20273;-80
2020/12/03 12:38:14;;;;;;;20.27;13.03;;;7.40;99.90;;;4.95;100.00;99515.13;5011158;28;20221;-80
2020/12/03 12:40:59;;;;;;;20.17;12.40;;;7.40;99.90;;;4.87;100.00;99506.75;5024895;28;20216;-80
2020/12/03 12:43:45;;;;;;;20.00;11.97;;;7.30;99.90;;;4.85;100.00;99503.41;5028576;28;20237;-77
2020/12/03 12:46:30;;;;;;;19.33;12.83;;;7.30;99.90;;;4.83;100.00;99487.25;5029106;28;20320;-81
2020/12/03 12:49:15;;;;;;;16.07;11.23;;;7.30;99.90;;;4.81;100.00;99487.25;5029676;28;20268;-78
2020/12/03 12:52:01;;;;;;;18.30;11.33;;;7.30;99.90;;;4.80;100.00;99475.34;5028376;28;20706;-78
2020/12/03 12:54:46;;;;;;;19.33;13.47;;;7.30;99.90;;;4.81;100.00;99468.47;5024818;28;20236;-81